Missouri City, TX (77459)

3:40 AM CDT on July 31, 2015 (GMT -0500)
Silver Ridge | | Change Station
CLOSE
Current Station
Personal Weather Station
Location: Missouri City, TX
Elevation: 69 ft
Nearby Weather Stations

Elev 69 ft 29.51 °N, 95.53 °W | Updated 3 seconds ago

Partly Cloudy
Partly Cloudy
80.6 °F
Feels Like 87 °F
N
0.0
Wind Variable Wind from ENE
Gusts 0.0 mph

Today
High -- | Low -- °F
--% Chance of Precip.
Yesterday
High -- | Low -- °F
Precip. -- in
6:41 AM 8:15 PM
Full, 100% visible
Pressure 30.01 in
Visibility 10.0 miles
Clouds Mostly Cloudy 4000 ft
Heat Index 87 °F
Dew Point 76 °F
Humidity 87%
Rainfall 0.00 in
Snow Depth Not available.
UV 0.0 out of 12
Pollen 3.10 out of 12
Air Quality Not available.
Flu Activity Not available.
METAR KAXH 310815Z AUTO 00000KT 10SM BKN040 26/24 A3001 RMK AO2 T02600242

More Conditions Fewer Conditions

Pressure 30.01 in
Visibility 10.0 miles
Clouds Mostly Cloudy 4000 ft
Heat Index 87 °F
Dew Point 76 °F
Humidity 87%
Rainfall 0.00 in
Snow Depth Not available.
UV 0.0 out of 12
Pollen 3.10 out of 12
Air Quality Not available.
Flu Activity Not available.
METAR KAXH 310815Z AUTO 00000KT 10SM BKN040 26/24 A3001 RMK AO2 T02600242

More Conditions Fewer Conditions

10-Day Weather Forecast

×

Almanac

Astronomy

Jul. 31, 2015 Rise Set
Actual Time
Civil Twilight
Nautical Twilight
Astronomical Twilight
Moon
Length of Visible Light
Length of Day
Tomorrow will be .
, % of the Moon is Illuminated

Today's Extremes

State Highs State Lows

Community

WunderPhotos

Upload Photos

1,842,633 photos uploaded!

WunderBlogs® & News

Nearby

Air Quality

  Air Quality AQ Index Pollutant
Not available.

Snow Depth

Station Depth Elevation

Earthquake Activity

City Distance Mag. Time & Date
Minimum magnitude displayed is 2.5.

Coastal Water Temperatures

Place Temperature

Stations

Nearby Weather Stations

Station Location Temp. Windchill Dew Point Humidity Wind Precip. Elev Updated Type